sensor_id;sensor_type;location;lat;lon;timestamp;temperature;humidity
32728;DHT22;55292;51.844;19.246;2023-04-24T00:01:35;9.10;99.90
32728;DHT22;55292;51.844;19.246;2023-04-24T00:06:39;9.20;99.90
32728;DHT22;55292;51.844;19.246;2023-04-24T00:11:45;9.20;99.90
32728;DHT22;55292;51.844;19.246;2023-04-24T00:16:51;9.20;99.90
32728;DHT22;55292;51.844;19.246;2023-04-24T00:21:54;9.20;99.90
32728;DHT22;55292;51.844;19.246;2023-04-24T00:26:57;9.20;99.90
32728;DHT22;55292;51.844;19.246;2023-04-24T00:32:00;9.20;99.90
32728;DHT22;55292;51.844;19.246;2023-04-24T00:37:02;9.20;99.90
32728;DHT22;55292;51.844;19.246;2023-04-24T00:42:05;9.10;99.90
32728;DHT22;55292;51.844;19.246;2023-04-24T00:47:09;9.10;99.90
32728;DHT22;55292;51.844;19.246;2023-04-24T00:52:13;9.10;99.90
32728;DHT22;55292;51.844;19.246;2023-04-24T00:57:19;9.10;99.90
32728;DHT22;55292;51.844;19.246;2023-04-24T01:02:22;9.20;99.90
32728;DHT22;55292;51.844;19.246;2023-04-24T01:07:27;9.10;99.90
32728;DHT22;55292;51.844;19.246;2023-04-24T01:12:29;9.30;99.90
32728;DHT22;55292;51.844;19.246;2023-04-24T01:17:33;9.30;99.90
32728;DHT22;55292;51.844;19.246;2023-04-24T01:22:35;9.30;99.90
32728;DHT22;55292;51.844;19.246;2023-04-24T01:27:38;9.40;99.90
32728;DHT22;55292;51.844;19.246;2023-04-24T01:32:42;9.40;99.90
32728;DHT22;55292;51.844;19.246;2023-04-24T01:37:49;9.40;99.90
32728;DHT22;55292;51.844;19.246;2023-04-24T01:42:51;9.40;99.90
32728;DHT22;55292;51.844;19.246;2023-04-24T01:47:54;9.50;99.90
32728;DHT22;55292;51.844;19.246;2023-04-24T01:52:59;9.60;99.90
32728;DHT22;55292;51.844;19.246;2023-04-24T01:58:02;9.60;99.90
32728;DHT22;55292;51.844;19.246;2023-04-24T02:03:04;9.70;99.90
32728;DHT22;55292;51.844;19.246;2023-04-24T02:08:08;9.70;99.90
32728;DHT22;55292;51.844;19.246;2023-04-24T02:13:12;9.70;99.90
32728;DHT22;55292;51.844;19.246;2023-04-24T02:18:15;9.60;99.90
32728;DHT22;55292;51.844;19.246;2023-04-24T02:23:18;9.40;99.90
32728;DHT22;55292;51.844;19.246;2023-04-24T02:28:20;9.10;99.90
32728;DHT22;55292;51.844;19.246;2023-04-24T02:33:25;9.10;99.90
32728;DHT22;55292;51.844;19.246;2023-04-24T02:38:28;9.30;99.90
32728;DHT22;55292;51.844;19.246;2023-04-24T02:43:31;9.30;99.90
32728;DHT22;55292;51.844;19.246;2023-04-24T02:48:33;9.30;99.90
32728;DHT22;55292;51.844;19.246;2023-04-24T02:53:36;9.10;99.90
32728;DHT22;55292;51.844;19.246;2023-04-24T02:58:38;9.00;99.90
32728;DHT22;55292;51.844;19.246;2023-04-24T03:03:41;8.90;99.90
32728;DHT22;55292;51.844;19.246;2023-04-24T03:08:44;8.90;99.90
32728;DHT22;55292;51.844;19.246;2023-04-24T03:13:47;8.70;99.90
32728;DHT22;55292;51.844;19.246;2023-04-24T03:18:49;8.70;99.90
32728;DHT22;55292;51.844;19.246;2023-04-24T03:23:53;9.00;99.90
32728;DHT22;55292;51.844;19.246;2023-04-24T03:28:56;9.00;99.90
32728;DHT22;55292;51.844;19.246;2023-04-24T03:33:59;8.80;99.90
32728;DHT22;55292;51.844;19.246;2023-04-24T03:39:03;8.90;99.90
32728;DHT22;55292;51.844;19.246;2023-04-24T03:44:08;8.90;99.90
32728;DHT22;55292;51.844;19.246;2023-04-24T03:49:12;9.30;99.90
32728;DHT22;55292;51.844;19.246;2023-04-24T03:54:18;9.30;99.90
32728;DHT22;55292;51.844;19.246;2023-04-24T03:59:21;9.60;99.90
32728;DHT22;55292;51.844;19.246;2023-04-24T04:04:36;9.70;99.90
32728;DHT22;55292;51.844;19.246;2023-04-24T04:09:39;9.80;99.90
32728;DHT22;55292;51.844;19.246;2023-04-24T04:14:42;10.00;99.90
32728;DHT22;55292;51.844;19.246;2023-04-24T04:19:45;10.10;99.90
32728;DHT22;55292;51.844;19.246;2023-04-24T04:24:48;10.40;99.90
32728;DHT22;55292;51.844;19.246;2023-04-24T04:29:56;10.40;99.90
32728;DHT22;55292;51.844;19.246;2023-04-24T04:35:01;11.80;99.90
32728;DHT22;55292;51.844;19.246;2023-04-24T04:40:07;13.20;99.90
32728;DHT22;55292;51.844;19.246;2023-04-24T04:45:22;14.50;99.90
32728;DHT22;55292;51.844;19.246;2023-04-24T04:50:44;15.20;99.90
32728;DHT22;55292;51.844;19.246;2023-04-24T04:55:47;15.80;99.90
32728;DHT22;55292;51.844;19.246;2023-04-24T05:00:51;16.60;99.90
32728;DHT22;55292;51.844;19.246;2023-04-24T05:06:02;16.80;99.90
32728;DHT22;55292;51.844;19.246;2023-04-24T05:11:08;15.40;99.90
32728;DHT22;55292;51.844;19.246;2023-04-24T05:16:13;15.00;99.90
32728;DHT22;55292;51.844;19.246;2023-04-24T05:21:16;15.00;99.90
32728;DHT22;55292;51.844;19.246;2023-04-24T05:26:22;16.00;99.90
32728;DHT22;55292;51.844;19.246;2023-04-24T05:31:25;16.10;99.90
32728;DHT22;55292;51.844;19.246;2023-04-24T05:36:29;18.20;99.90
32728;DHT22;55292;51.844;19.246;2023-04-24T05:41:33;18.90;99.90
32728;DHT22;55292;51.844;19.246;2023-04-24T05:46:35;17.60;99.90
32728;DHT22;55292;51.844;19.246;2023-04-24T05:51:38;17.10;99.90
32728;DHT22;55292;51.844;19.246;2023-04-24T05:56:42;16.90;99.90
32728;DHT22;55292;51.844;19.246;2023-04-24T06:01:48;17.00;99.90
32728;DHT22;55292;51.844;19.246;2023-04-24T06:06:54;17.20;99.90
32728;DHT22;55292;51.844;19.246;2023-04-24T06:12:00;17.10;99.90
32728;DHT22;55292;51.844;19.246;2023-04-24T06:17:12;17.30;99.90
32728;DHT22;55292;51.844;19.246;2023-04-24T06:22:16;17.40;99.90
32728;DHT22;55292;51.844;19.246;2023-04-24T06:27:19;17.40;99.90
32728;DHT22;55292;51.844;19.246;2023-04-24T06:32:23;17.70;99.90
32728;DHT22;55292;51.844;19.246;2023-04-24T06:37:26;17.50;99.90
32728;DHT22;55292;51.844;19.246;2023-04-24T06:42:29;17.50;99.90
32728;DHT22;55292;51.844;19.246;2023-04-24T06:47:32;17.90;99.90
32728;DHT22;55292;51.844;19.246;2023-04-24T06:52:34;18.50;99.90
32728;DHT22;55292;51.844;19.246;2023-04-24T06:57:37;19.00;97.70
32728;DHT22;55292;51.844;19.246;2023-04-24T07:02:40;19.30;94.40
32728;DHT22;55292;51.844;19.246;2023-04-24T07:07:43;20.00;92.20
32728;DHT22;55292;51.844;19.246;2023-04-24T07:12:47;20.50;91.00
32728;DHT22;55292;51.844;19.246;2023-04-24T07:17:50;20.50;90.40
32728;DHT22;55292;51.844;19.246;2023-04-24T07:22:52;20.20;84.80
32728;DHT22;55292;51.844;19.246;2023-04-24T07:27:56;20.30;85.00
32728;DHT22;55292;51.844;19.246;2023-04-24T07:32:59;20.40;80.90
32728;DHT22;55292;51.844;19.246;2023-04-24T07:38:02;20.10;79.80
32728;DHT22;55292;51.844;19.246;2023-04-24T07:43:04;19.90;79.40
32728;DHT22;55292;51.844;19.246;2023-04-24T07:48:07;20.00;82.30
32728;DHT22;55292;51.844;19.246;2023-04-24T07:53:11;20.10;82.50
32728;DHT22;55292;51.844;19.246;2023-04-24T07:58:13;20.30;81.00
32728;DHT22;55292;51.844;19.246;2023-04-24T08:03:16;20.20;76.20
32728;DHT22;55292;51.844;19.246;2023-04-24T08:08:22;20.50;79.40
32728;DHT22;55292;51.844;19.246;2023-04-24T08:13:25;20.60;73.00
32728;DHT22;55292;51.844;19.246;2023-04-24T08:18:28;20.50;75.20
32728;DHT22;55292;51.844;19.246;2023-04-24T08:23:30;20.60;73.30
32728;DHT22;55292;51.844;19.246;2023-04-24T08:28:33;20.60;73.40
32728;DHT22;55292;51.844;19.246;2023-04-24T08:33:35;20.70;74.50
32728;DHT22;55292;51.844;19.246;2023-04-24T08:38:38;21.00;74.80
32728;DHT22;55292;51.844;19.246;2023-04-24T08:43:47;21.00;69.80
32728;DHT22;55292;51.844;19.246;2023-04-24T08:48:52;21.00;70.10
32728;DHT22;55292;51.844;19.246;2023-04-24T08:53:54;20.90;72.60
32728;DHT22;55292;51.844;19.246;2023-04-24T08:58:57;21.20;72.50
32728;DHT22;55292;51.844;19.246;2023-04-24T09:04:04;21.20;75.10
32728;DHT22;55292;51.844;19.246;2023-04-24T09:09:07;21.60;68.40
32728;DHT22;55292;51.844;19.246;2023-04-24T09:14:11;22.00;63.40
32728;DHT22;55292;51.844;19.246;2023-04-24T09:19:13;22.00;63.20
32728;DHT22;55292;51.844;19.246;2023-04-24T09:24:19;21.80;60.60
32728;DHT22;55292;51.844;19.246;2023-04-24T09:29:25;21.60;63.20
32728;DHT22;55292;51.844;19.246;2023-04-24T09:34:28;21.40;70.50
32728;DHT22;55292;51.844;19.246;2023-04-24T09:39:31;21.60;65.00
32728;DHT22;55292;51.844;19.246;2023-04-24T09:44:34;21.70;65.70
32728;DHT22;55292;51.844;19.246;2023-04-24T09:49:37;21.30;66.10
32728;DHT22;55292;51.844;19.246;2023-04-24T09:54:42;21.60;70.00
32728;DHT22;55292;51.844;19.246;2023-04-24T09:59:54;21.70;66.70
32728;DHT22;55292;51.844;19.246;2023-04-24T10:04:57;21.40;69.40
32728;DHT22;55292;51.844;19.246;2023-04-24T10:10:02;21.60;66.70
32728;DHT22;55292;51.844;19.246;2023-04-24T10:15:06;21.40;66.90
32728;DHT22;55292;51.844;19.246;2023-04-24T10:20:10;21.60;68.50
32728;DHT22;55292;51.844;19.246;2023-04-24T10:25:15;21.70;62.40
32728;DHT22;55292;51.844;19.246;2023-04-24T10:30:20;21.70;66.00
32728;DHT22;55292;51.844;19.246;2023-04-24T10:35:23;22.20;67.40
32728;DHT22;55292;51.844;19.246;2023-04-24T10:40:34;22.90;67.00
32728;DHT22;55292;51.844;19.246;2023-04-24T10:45:38;23.10;63.60
32728;DHT22;55292;51.844;19.246;2023-04-24T10:51:02;23.10;63.50
32728;DHT22;55292;51.844;19.246;2023-04-24T10:56:09;22.60;64.00
32728;DHT22;55292;51.844;19.246;2023-04-24T11:01:29;22.50;64.30
32728;DHT22;55292;51.844;19.246;2023-04-24T11:06:34;23.10;65.80
32728;DHT22;55292;51.844;19.246;2023-04-24T11:11:43;23.60;63.80
32728;DHT22;55292;51.844;19.246;2023-04-24T11:16:53;23.10;61.30
32728;DHT22;55292;51.844;19.246;2023-04-24T11:22:05;22.40;63.90
32728;DHT22;55292;51.844;19.246;2023-04-24T11:27:18;22.80;60.30
32728;DHT22;55292;51.844;19.246;2023-04-24T11:32:29;22.30;62.90
32728;DHT22;55292;51.844;19.246;2023-04-24T11:37:39;22.30;62.40
32728;DHT22;55292;51.844;19.246;2023-04-24T11:42:46;22.70;62.10
32728;DHT22;55292;51.844;19.246;2023-04-24T11:47:49;23.30;60.60
32728;DHT22;55292;51.844;19.246;2023-04-24T11:52:53;22.90;60.80
32728;DHT22;55292;51.844;19.246;2023-04-24T11:57:57;22.50;61.40
32728;DHT22;55292;51.844;19.246;2023-04-24T12:03:11;22.80;63.30
32728;DHT22;55292;51.844;19.246;2023-04-24T12:08:30;23.20;61.40
32728;DHT22;55292;51.844;19.246;2023-04-24T12:13:33;23.70;58.70
32728;DHT22;55292;51.844;19.246;2023-04-24T12:18:45;23.30;58.00
32728;DHT22;55292;51.844;19.246;2023-04-24T12:23:49;24.00;58.70
32728;DHT22;55292;51.844;19.246;2023-04-24T12:28:52;24.20;55.40
32728;DHT22;55292;51.844;19.246;2023-04-24T12:33:55;24.10;57.50
32728;DHT22;55292;51.844;19.246;2023-04-24T12:38:58;24.30;58.30
32728;DHT22;55292;51.844;19.246;2023-04-24T12:44:01;23.40;56.20
32728;DHT22;55292;51.844;19.246;2023-04-24T12:49:05;23.50;59.60
32728;DHT22;55292;51.844;19.246;2023-04-24T12:54:08;24.00;62.00
32728;DHT22;55292;51.844;19.246;2023-04-24T12:59:10;24.30;58.80
32728;DHT22;55292;51.844;19.246;2023-04-24T13:04:13;24.00;61.00
32728;DHT22;55292;51.844;19.246;2023-04-24T13:09:16;23.80;58.10
32728;DHT22;55292;51.844;19.246;2023-04-24T13:14:18;24.20;60.90
32728;DHT22;55292;51.844;19.246;2023-04-24T13:19:24;24.10;61.70
32728;DHT22;55292;51.844;19.246;2023-04-24T13:24:30;23.30;61.40
32728;DHT22;55292;51.844;19.246;2023-04-24T13:29:36;22.30;64.00
32728;DHT22;55292;51.844;19.246;2023-04-24T13:34:39;22.10;64.80
32728;DHT22;55292;51.844;19.246;2023-04-24T13:39:42;22.10;64.80
32728;DHT22;55292;51.844;19.246;2023-04-24T13:44:45;22.60;65.50
32728;DHT22;55292;51.844;19.246;2023-04-24T13:49:49;23.00;62.60
32728;DHT22;55292;51.844;19.246;2023-04-24T13:54:52;22.60;64.30
32728;DHT22;55292;51.844;19.246;2023-04-24T13:59:55;22.30;62.90
32728;DHT22;55292;51.844;19.246;2023-04-24T14:04:58;21.70;65.90
32728;DHT22;55292;51.844;19.246;2023-04-24T14:10:03;21.30;68.80
32728;DHT22;55292;51.844;19.246;2023-04-24T14:15:06;20.90;70.50
32728;DHT22;55292;51.844;19.246;2023-04-24T14:20:11;20.60;70.20
32728;DHT22;55292;51.844;19.246;2023-04-24T14:25:14;20.80;71.00
32728;DHT22;55292;51.844;19.246;2023-04-24T14:30:18;21.10;73.40
32728;DHT22;55292;51.844;19.246;2023-04-24T14:35:21;21.10;70.90
32728;DHT22;55292;51.844;19.246;2023-04-24T14:40:25;21.00;70.60
32728;DHT22;55292;51.844;19.246;2023-04-24T14:45:50;20.80;69.50
32728;DHT22;55292;51.844;19.246;2023-04-24T14:50:53;20.60;70.80
32728;DHT22;55292;51.844;19.246;2023-04-24T14:55:57;20.40;74.60
32728;DHT22;55292;51.844;19.246;2023-04-24T15:01:00;20.20;75.40
32728;DHT22;55292;51.844;19.246;2023-04-24T15:06:04;20.10;76.20
32728;DHT22;55292;51.844;19.246;2023-04-24T15:11:07;20.10;76.20
32728;DHT22;55292;51.844;19.246;2023-04-24T15:16:10;20.20;76.30
32728;DHT22;55292;51.844;19.246;2023-04-24T15:21:14;20.40;79.10
32728;DHT22;55292;51.844;19.246;2023-04-24T15:26:19;20.40;77.40
32728;DHT22;55292;51.844;19.246;2023-04-24T15:31:26;20.20;77.50
32728;DHT22;55292;51.844;19.246;2023-04-24T15:36:28;20.00;77.80
32728;DHT22;55292;51.844;19.246;2023-04-24T15:41:31;19.90;76.10
32728;DHT22;55292;51.844;19.246;2023-04-24T15:46:34;19.50;76.20
32728;DHT22;55292;51.844;19.246;2023-04-24T15:51:38;19.20;77.60
32728;DHT22;55292;51.844;19.246;2023-04-24T15:56:40;18.80;80.70
32728;DHT22;55292;51.844;19.246;2023-04-24T16:01:44;18.50;82.10
32728;DHT22;55292;51.844;19.246;2023-04-24T16:06:46;18.30;82.90
32728;DHT22;55292;51.844;19.246;2023-04-24T16:16:53;18.10;83.60
32728;DHT22;55292;51.844;19.246;2023-04-24T16:21:57;18.00;82.20
32728;DHT22;55292;51.844;19.246;2023-04-24T16:27:00;17.70;83.90
32728;DHT22;55292;51.844;19.246;2023-04-24T16:32:03;17.40;83.00
32728;DHT22;55292;51.844;19.246;2023-04-24T16:37:06;17.00;84.80
32728;DHT22;55292;51.844;19.246;2023-04-24T16:42:08;16.80;86.70
32728;DHT22;55292;51.844;19.246;2023-04-24T16:47:11;16.50;88.10
32728;DHT22;55292;51.844;19.246;2023-04-24T16:52:16;16.40;88.00
32728;DHT22;55292;51.844;19.246;2023-04-24T16:57:19;16.30;87.90
32728;DHT22;55292;51.844;19.246;2023-04-24T17:02:21;16.10;89.60
32728;DHT22;55292;51.844;19.246;2023-04-24T17:07:24;15.90;90.30
32728;DHT22;55292;51.844;19.246;2023-04-24T17:12:27;15.80;91.00
32728;DHT22;55292;51.844;19.246;2023-04-24T17:17:31;15.60;92.00
32728;DHT22;55292;51.844;19.246;2023-04-24T17:22:33;15.50;92.70
32728;DHT22;55292;51.844;19.246;2023-04-24T17:27:37;15.30;94.00
32728;DHT22;55292;51.844;19.246;2023-04-24T17:32:40;15.20;95.80
32728;DHT22;55292;51.844;19.246;2023-04-24T17:37:44;15.00;97.60
32728;DHT22;55292;51.844;19.246;2023-04-24T17:42:48;14.80;99.80
32728;DHT22;55292;51.844;19.246;2023-04-24T17:47:51;14.50;99.90
32728;DHT22;55292;51.844;19.246;2023-04-24T17:52:54;14.00;99.90
32728;DHT22;55292;51.844;19.246;2023-04-24T17:57:57;11.20;99.90
32728;DHT22;55292;51.844;19.246;2023-04-24T18:03:01;13.90;99.90
32728;DHT22;55292;51.844;19.246;2023-04-24T18:08:05;13.80;99.90
32728;DHT22;55292;51.844;19.246;2023-04-24T18:13:08;13.60;99.90
32728;DHT22;55292;51.844;19.246;2023-04-24T18:18:11;13.50;99.90
32728;DHT22;55292;51.844;19.246;2023-04-24T18:23:14;13.40;99.90
32728;DHT22;55292;51.844;19.246;2023-04-24T18:28:17;13.30;99.90
32728;DHT22;55292;51.844;19.246;2023-04-24T18:38:23;12.80;99.90
32728;DHT22;55292;51.844;19.246;2023-04-24T18:43:27;12.80;99.90
32728;DHT22;55292;51.844;19.246;2023-04-24T18:48:31;12.80;99.90
32728;DHT22;55292;51.844;19.246;2023-04-24T18:53:35;12.90;99.90
32728;DHT22;55292;51.844;19.246;2023-04-24T18:58:38;13.00;99.90
32728;DHT22;55292;51.844;19.246;2023-04-24T19:03:45;13.20;99.90
32728;DHT22;55292;51.844;19.246;2023-04-24T19:08:56;13.20;99.90
32728;DHT22;55292;51.844;19.246;2023-04-24T19:14:01;13.10;99.90
32728;DHT22;55292;51.844;19.246;2023-04-24T19:19:07;13.20;99.90
32728;DHT22;55292;51.844;19.246;2023-04-24T19:24:09;13.20;99.90
32728;DHT22;55292;51.844;19.246;2023-04-24T19:29:12;13.30;99.90
32728;DHT22;55292;51.844;19.246;2023-04-24T19:34:15;13.30;99.90
32728;DHT22;55292;51.844;19.246;2023-04-24T19:39:17;13.30;99.90
32728;DHT22;55292;51.844;19.246;2023-04-24T19:44:20;13.30;99.90
32728;DHT22;55292;51.844;19.246;2023-04-24T19:54:26;13.30;99.90
32728;DHT22;55292;51.844;19.246;2023-04-24T19:59:29;13.30;99.90
32728;DHT22;55292;51.844;19.246;2023-04-24T20:04:35;13.30;99.90
32728;DHT22;55292;51.844;19.246;2023-04-24T20:09:38;13.30;99.90
32728;DHT22;55292;51.844;19.246;2023-04-24T20:14:41;13.20;99.90
32728;DHT22;55292;51.844;19.246;2023-04-24T20:19:49;13.20;99.90
32728;DHT22;55292;51.844;19.246;2023-04-24T20:24:54;13.20;99.90
32728;DHT22;55292;51.844;19.246;2023-04-24T20:29:57;13.10;99.90
32728;DHT22;55292;51.844;19.246;2023-04-24T20:35:01;13.00;99.90
32728;DHT22;55292;51.844;19.246;2023-04-24T20:40:06;12.50;99.90
32728;DHT22;55292;51.844;19.246;2023-04-24T20:45:10;12.60;99.90
32728;DHT22;55292;51.844;19.246;2023-04-24T20:50:13;12.30;99.90
32728;DHT22;55292;51.844;19.246;2023-04-24T20:55:15;12.20;99.90
32728;DHT22;55292;51.844;19.246;2023-04-24T21:00:19;12.10;99.90
32728;DHT22;55292;51.844;19.246;2023-04-24T21:05:22;12.00;99.90
32728;DHT22;55292;51.844;19.246;2023-04-24T21:10:25;12.00;99.90
32728;DHT22;55292;51.844;19.246;2023-04-24T21:15:33;11.90;99.90
32728;DHT22;55292;51.844;19.246;2023-04-24T21:20:36;11.80;99.90
32728;DHT22;55292;51.844;19.246;2023-04-24T21:25:40;11.80;99.90
32728;DHT22;55292;51.844;19.246;2023-04-24T21:30:43;11.70;99.90
32728;DHT22;55292;51.844;19.246;2023-04-24T21:35:48;11.70;99.90
32728;DHT22;55292;51.844;19.246;2023-04-24T21:40:51;11.60;99.90
32728;DHT22;55292;51.844;19.246;2023-04-24T21:45:55;11.60;99.90
32728;DHT22;55292;51.844;19.246;2023-04-24T21:50:58;11.60;99.90
32728;DHT22;55292;51.844;19.246;2023-04-24T21:56:01;11.50;99.90
32728;DHT22;55292;51.844;19.246;2023-04-24T22:01:04;11.40;99.90
32728;DHT22;55292;51.844;19.246;2023-04-24T22:06:07;11.40;99.90
32728;DHT22;55292;51.844;19.246;2023-04-24T22:11:11;11.30;99.90
32728;DHT22;55292;51.844;19.246;2023-04-24T22:16:27;11.20;99.90
32728;DHT22;55292;51.844;19.246;2023-04-24T22:21:32;11.10;99.90
32728;DHT22;55292;51.844;19.246;2023-04-24T22:26:37;11.00;99.90
32728;DHT22;55292;51.844;19.246;2023-04-24T22:31:40;11.00;99.90
32728;DHT22;55292;51.844;19.246;2023-04-24T22:36:43;10.90;99.90
32728;DHT22;55292;51.844;19.246;2023-04-24T22:41:46;10.90;99.90
32728;DHT22;55292;51.844;19.246;2023-04-24T22:46:49;10.90;99.90
32728;DHT22;55292;51.844;19.246;2023-04-24T22:51:53;11.00;99.90
32728;DHT22;55292;51.844;19.246;2023-04-24T22:56:59;11.10;99.90
32728;DHT22;55292;51.844;19.246;2023-04-24T23:02:03;11.20;99.90
32728;DHT22;55292;51.844;19.246;2023-04-24T23:07:07;11.20;99.90
32728;DHT22;55292;51.844;19.246;2023-04-24T23:12:10;11.20;99.90
32728;DHT22;55292;51.844;19.246;2023-04-24T23:17:13;11.10;99.90
32728;DHT22;55292;51.844;19.246;2023-04-24T23:22:18;11.10;99.90
32728;DHT22;55292;51.844;19.246;2023-04-24T23:27:22;11.10;99.90
32728;DHT22;55292;51.844;19.246;2023-04-24T23:32:24;11.10;99.90
32728;DHT22;55292;51.844;19.246;2023-04-24T23:37:30;11.10;99.90
32728;DHT22;55292;51.844;19.246;2023-04-24T23:42:33;11.00;99.90
32728;DHT22;55292;51.844;19.246;2023-04-24T23:47:36;10.90;99.90
32728;DHT22;55292;51.844;19.246;2023-04-24T23:52:39;10.90;99.90
32728;DHT22;55292;51.844;19.246;2023-04-24T23:57:43;10.80;99.90
